Main page
METAR-TAF:

METAR-TAF

Airports :

Velana International Airport

Malé, Maldives

latitude: 04-12N, longitude: 073-32E, elevation: 2 m

Current weather observation

The report was made 1 hour and 4 minutes ago, at 09:00 UTC
Wind 16 kt from the East/Northeast
Temperature 32°C
Humidity 71%
Pressure 1009 hPa
Visibility: 9000 m
Scattered clouds at a height of 1800 ft, Towering cumulus.

METAR: VRMM 240900Z 06016KT 9000 SCT018TCU 32/26 Q1009 NOSIG

Time: 15:04 (10:04 UTC)

Forecast

The report was made 5 hours and 4 minutes ago, at 05:00 UTC
Forecast valid from 24 at 00 UTC to 25 at 06 UTC
Wind 14 kt from the East/Northeast
Visibility: 9000 m
Few clouds at a height of 1800 ft
Temporary
from 24 at 07 UTC to 24 at 12 UTC
Few clouds at a height of 1800 ft, Cumulonimbus.

TAF: VRMM 240500Z 2400/2506 07014KT 9000 FEW018 TEMPO 2407/2412 FEW018CB

Weather observations and forecasts of more than 4000 airports (METAR and TAF reports).

The available stations are represented by yellow and red dots on the map.

Hover mouse over dot to see the name of the station.

Then click to see weather observations and forecasts.

To change the map : click on the green buttons with a black cross to zoom in, on the green button with a dash to zoom out, or on the green arrows for adjacent maps.


METAR-TAF: